Time;durP1;ratioP1;P1;durP2;ratioP2;P2;SDS_P1;SDS_P2;PMS_P1;PMS_P2;Temp;Humidity;BMP_temperature;BMP_pressure;BME280_temperature;BME280_humidity;BME280_pressure;Samples;Min_cycle;Max_cycle;Signal;HPM_P1;HPM_P2
2023/03/31 00:02:20;;;;;;;;;;;;;;;10.19;96.02;100337.03;5026182;28;19913;-67
2023/03/31 00:04:51;;;;;;;;;;;;;;;10.19;96.01;100329.06;5024351;28;19924;-67
2023/03/31 00:07:20;;;;;;;;;;;;;;;10.17;96.45;100333.72;5016767;28;20349;-66
2023/03/31 00:09:46;;;;;;;;;;;;;;;10.14;96.84;100327.97;5023916;28;19917;-68
2023/03/31 00:12:15;;;;;;;;;;;;;;;10.09;97.15;100331.13;5026436;28;19917;-67
2023/03/31 00:14:41;;;;;;;;;;;;;;;10.05;97.59;100331.66;5017837;28;19924;-67
2023/03/31 00:17:06;;;;;;;;;;;;;;;9.98;98.28;100320.97;5020202;28;19917;-66
2023/03/31 00:19:32;;;;;;;;;;;;;;;9.94;98.45;100323.16;5027729;28;19950;-68
2023/03/31 00:22:00;;;;;;;;;;;;;;;9.91;99.25;100320.03;5025810;28;20317;-68
2023/03/31 00:24:26;;;;;;;;;;;;;;;9.88;99.41;100310.59;5019467;28;19917;-68
2023/03/31 00:26:51;;;;;;;;;;;;;;;9.85;99.94;100299.53;5025964;28;19990;-68
2023/03/31 00:29:16;;;;;;;;;;;;;;;9.83;99.66;100282.94;5025111;28;19917;-68
2023/03/31 00:31:41;;;;;;;;;;;;;;;9.84;99.62;100274.84;5026810;28;21697;-68
2023/03/31 00:34:06;;;;;;;;;;;;;;;9.87;99.38;100265.69;5025859;28;19924;-68
2023/03/31 00:36:35;;;;;;;;;;;;;;;9.90;99.03;100265.34;5027953;28;19940;-68
2023/03/31 00:39:07;;;;;;;;;;;;;;;9.91;99.09;100251.06;5020170;28;19922;-69
2023/03/31 00:41:33;;;;;;;;;;;;;;;9.92;98.62;100237.63;5024521;28;19939;-68
2023/03/31 00:44:00;;;;;;;;;;;;;;;9.95;98.45;100244.41;5022251;28;20311;-68
2023/03/31 00:46:41;;;;;;;;;;;;;;;9.97;98.35;100228.31;5027353;28;19917;-69
2023/03/31 00:49:11;;;;;;;;;;;;;;;9.97;97.82;100223.81;5022453;28;19928;-69
2023/03/31 00:51:37;;;;;;;;;;;;;;;10.01;97.51;100218.97;5020697;28;19924;-68
2023/03/31 00:54:04;;;;;;;;;;;;;;;10.02;97.44;100216.13;5026340;28;19920;-69
2023/03/31 00:56:34;;;;;;;;;;;;;;;10.03;97.15;100217.78;5022957;28;20439;-68
2023/03/31 00:59:01;;;;;;;;;;;;;;;10.02;97.22;100205.53;5022588;28;19940;-68
2023/03/31 01:01:26;;;;;;;;;;;;;;;10.00;97.32;100212.84;5020972;28;19917;-69
2023/03/31 01:03:52;;;;;;;;;;;;;;;9.99;97.38;100208.53;5024473;28;19923;-69
2023/03/31 01:06:18;;;;;;;;;;;;;;;9.99;97.33;100199.75;5020119;28;20329;-69
2023/03/31 01:08:44;;;;;;;;;;;;;;;9.97;97.75;100204.44;5025857;28;20196;-68
2023/03/31 01:11:11;;;;;;;;;;;;;;;9.96;98.17;100197.47;5024555;28;19917;-68
2023/03/31 01:13:38;;;;;;;;;;;;;;;9.95;98.94;100196.66;5025632;28;19917;-68
2023/03/31 01:16:03;;;;;;;;;;;;;;;9.91;99.40;100190.91;5024484;28;20421;-69
2023/03/31 01:18:29;;;;;;;;;;;;;;;9.90;99.60;100178.63;5025077;28;20015;-68
2023/03/31 01:21:02;;;;;;;;;;;;;;;9.91;99.90;100184.78;5020919;28;19921;-68
2023/03/31 01:23:36;;;;;;;;;;;;;;;9.90;100.00;100173.34;5025295;28;19917;-68
2023/03/31 01:26:22;;;;;;;;;;;;;;;9.91;100.00;100166.19;5024946;28;20007;-68
2023/03/31 01:28:53;;;;;;;;;;;;;;;9.91;100.00;100153.75;5024834;28;19932;-67
2023/03/31 01:31:19;;;;;;;;;;;;;;;9.93;100.00;100149.09;5018939;28;19924;-68
2023/03/31 01:34:01;;;;;;;;;;;;;;;9.94;100.00;100142.78;5026122;28;19936;-68
2023/03/31 01:36:45;;;;;;;;;;;;;;;9.94;100.00;100137.47;5025052;28;19924;-68
2023/03/31 01:39:22;;;;;;;;;;;;;;;9.94;100.00;100134.84;5028712;28;20020;-68
2023/03/31 01:41:47;;;;;;;;;;;;;;;9.94;100.00;100128.69;5022084;28;19923;-68
2023/03/31 01:44:22;;;;;;;;;;;;;;;9.95;100.00;100125.03;5026421;28;19921;-68
2023/03/31 01:46:53;;;;;;;;;;;;;;;9.97;100.00;100116.91;5022434;28;19960;-68
2023/03/31 01:49:33;;;;;;;;;;;;;;;9.95;100.00;100117.09;5026796;28;19921;-69
2023/03/31 01:52:16;;;;;;;;;;;;;;;9.93;100.00;100105.84;5019778;28;19918;-68
2023/03/31 01:54:49;;;;;;;;;;;;;;;9.92;100.00;100106.84;5024541;28;20048;-68
2023/03/31 01:57:17;;;;;;;;;;;;;;;9.90;100.00;100099.06;5022805;28;19928;-68
2023/03/31 01:59:58;;;;;;;;;;;;;;;9.90;100.00;100095.59;5016015;28;19928;-68
2023/03/31 02:02:27;;;;;;;;;;;;;;;9.88;100.00;100093.13;5025495;28;19924;-68
2023/03/31 02:04:55;;;;;;;;;;;;;;;9.88;100.00;100079.88;5024875;28;20038;-67
2023/03/31 02:07:29;;;;;;;;;;;;;;;9.90;100.00;100071.72;5023200;28;20302;-68
2023/03/31 02:09:57;;;;;;;;;;;;;;;9.89;100.00;100057.66;5023200;28;19928;-68
2023/03/31 02:12:24;;;;;;;;;;;;;;;9.89;100.00;100051.53;5023522;28;19975;-67
2023/03/31 02:14:51;;;;;;;;;;;;;;;9.87;100.00;100038.44;5023306;28;19921;-68
2023/03/31 02:17:20;;;;;;;;;;;;;;;9.88;100.00;100040.09;5019186;28;19918;-67
2023/03/31 02:19:48;;;;;;;;;;;;;;;9.90;100.00;100038.06;5002783;28;20757;-68
2023/03/31 02:22:14;;;;;;;;;;;;;;;9.90;100.00;100021.34;5025447;28;20378;-68
2023/03/31 02:24:40;;;;;;;;;;;;;;;9.91;100.00;100007.91;5025486;28;20004;-67
2023/03/31 02:27:25;;;;;;;;;;;;;;;9.92;100.00;100000.75;5023713;28;20351;-68
2023/03/31 02:29:51;;;;;;;;;;;;;;;9.89;100.00;100001.13;5019362;28;19976;-68
2023/03/31 02:32:31;;;;;;;;;;;;;;;9.89;100.00;99979.91;5020424;28;19960;-68
2023/03/31 02:34:56;;;;;;;;;;;;;;;9.89;100.00;99978.09;5015052;28;19924;-69
2023/03/31 02:37:22;;;;;;;;;;;;;;;9.89;100.00;99969.31;5021250;28;19921;-68
2023/03/31 02:39:49;;;;;;;;;;;;;;;9.88;100.00;99962.38;5024754;28;19921;-68
2023/03/31 02:42:14;;;;;;;;;;;;;;;9.87;100.00;99955.41;5020875;28;20015;-68
2023/03/31 02:44:40;;;;;;;;;;;;;;;9.83;100.00;99944.38;5019537;28;20004;-68
2023/03/31 02:47:07;;;;;;;;;;;;;;;9.83;100.00;99938.22;5025110;28;19913;-68
2023/03/31 02:49:33;;;;;;;;;;;;;;;9.82;100.00;99940.03;5024841;28;19918;-69
2023/03/31 02:52:08;;;;;;;;;;;;;;;9.80;100.00;99933.28;5029902;28;19939;-68
2023/03/31 02:54:33;;;;;;;;;;;;;;;9.78;100.00;99922.88;5025280;28;19957;-68
2023/03/31 02:57:05;;;;;;;;;;;;;;;9.77;100.00;99910.63;5026225;28;20012;-67
2023/03/31 02:59:33;;;;;;;;;;;;;;;9.74;100.00;99916.31;5028380;28;19921;-68
2023/03/31 03:02:07;;;;;;;;;;;;;;;9.72;100.00;99907.72;5030225;28;19924;-68
2023/03/31 03:04:58;;;;;;;;;;;;;;;9.72;100.00;99896.31;5025243;28;20367;-67
2023/03/31 03:07:30;;;;;;;;;;;;;;;9.71;100.00;99886.69;5022623;28;19917;-68
2023/03/31 03:10:21;;;;;;;;;;;;;;;9.71;100.00;99887.53;5026433;28;19928;-68
2023/03/31 03:13:05;;;;;;;;;;;;;;;9.72;100.00;99877.75;4992913;28;19913;-68
2023/03/31 03:15:32;;;;;;;;;;;;;;;9.74;100.00;99878.38;5023322;28;19921;-68
2023/03/31 03:17:58;;;;;;;;;;;;;;;9.74;100.00;99878.38;5029014;28;19924;-68
2023/03/31 03:20:23;;;;;;;;;;;;;;;9.73;100.00;99868.78;5019152;28;19921;-68
2023/03/31 03:22:48;;;;;;;;;;;;;;;9.71;100.00;99876.91;5028311;28;19925;-68
2023/03/31 03:25:16;;;;;;;;;;;;;;;9.69;100.00;99863.03;5026807;28;19960;-68
2023/03/31 03:27:41;;;;;;;;;;;;;;;9.68;100.00;99853.44;5022410;28;19917;-68
2023/03/31 03:30:07;;;;;;;;;;;;;;;9.70;100.00;99840.00;5030274;28;19921;-69
2023/03/31 03:32:33;;;;;;;;;;;;;;;9.71;100.00;99834.50;5024850;28;20263;-68
2023/03/31 03:34:59;;;;;;;;;;;;;;;9.72;100.00;99841.44;5016464;28;20363;-68
2023/03/31 03:37:24;;;;;;;;;;;;;;;9.74;100.00;99843.91;5019540;28;19993;-67
2023/03/31 03:39:49;;;;;;;;;;;;;;;9.75;100.00;99835.75;5027625;28;19971;-68
2023/03/31 03:42:14;;;;;;;;;;;;;;;9.76;100.00;99828.63;5018602;28;19917;-67
2023/03/31 03:44:39;;;;;;;;;;;;;;;9.76;100.00;99818.03;5028359;28;19923;-67
2023/03/31 03:47:05;;;;;;;;;;;;;;;9.77;100.00;99811.72;5020459;28;19952;-68
2023/03/31 03:49:30;;;;;;;;;;;;;;;9.79;100.00;99805.19;5029075;28;20379;-67
2023/03/31 03:51:55;;;;;;;;;;;;;;;9.81;100.00;99795.22;5023298;28;19925;-68
2023/03/31 03:54:21;;;;;;;;;;;;;;;9.82;100.00;99778.31;5027528;28;20436;-68
2023/03/31 03:56:46;;;;;;;;;;;;;;;9.83;100.00;99774.66;5030186;28;19923;-68
2023/03/31 03:59:11;;;;;;;;;;;;;;;9.88;100.00;99774.09;5028313;28;19928;-68
2023/03/31 04:01:36;;;;;;;;;;;;;;;9.84;100.00;99754.28;5021540;28;20384;-68
2023/03/31 04:04:02;;;;;;;;;;;;;;;9.83;100.00;99750.81;5021525;28;19913;-68
2023/03/31 04:06:27;;;;;;;;;;;;;;;9.84;100.00;99748.97;5030134;28;20611;-69
2023/03/31 04:08:52;;;;;;;;;;;;;;;9.80;100.00;99753.00;5027232;28;19924;-68
2023/03/31 04:11:18;;;;;;;;;;;;;;;9.76;100.00;99741.94;5020076;28;20326;-68
2023/03/31 04:13:43;;;;;;;;;;;;;;;9.74;100.00;99724.59;5010756;28;19936;-68
2023/03/31 04:16:09;;;;;;;;;;;;;;;9.73;100.00;99715.81;5029882;28;19913;-68
2023/03/31 04:18:36;;;;;;;;;;;;;;;9.71;100.00;99714.38;5028129;28;19935;-68
2023/03/31 04:21:04;;;;;;;;;;;;;;;9.70;100.00;99704.78;5028913;28;19924;-68
2023/03/31 04:23:33;;;;;;;;;;;;;;;9.68;100.00;99704.16;5020826;28;19921;-69
2023/03/31 04:25:59;;;;;;;;;;;;;;;9.65;100.00;99704.56;5026621;28;19913;-69
2023/03/31 04:28:25;;;;;;;;;;;;;;;9.62;100.00;99695.97;5024265;28;20402;-68
2023/03/31 04:30:53;;;;;;;;;;;;;;;9.61;100.00;99691.69;5029837;28;19913;-67
2023/03/31 04:33:18;;;;;;;;;;;;;;;9.59;100.00;99690.25;5019370;28;19924;-68
2023/03/31 04:35:51;;;;;;;;;;;;;;;9.57;100.00;99684.31;5029189;28;19921;-69
2023/03/31 04:38:17;;;;;;;;;;;;;;;9.54;100.00;99685.53;5021910;28;19913;-69
2023/03/31 04:40:43;;;;;;;;;;;;;;;9.53;100.00;99670.59;5027448;28;19914;-69
2023/03/31 04:43:09;;;;;;;;;;;;;;;9.51;100.00;99659.38;5021910;28;20302;-68
2023/03/31 04:45:34;;;;;;;;;;;;;;;9.50;100.00;99641.03;5028987;28;20383;-68
2023/03/31 04:47:59;;;;;;;;;;;;;;;9.50;100.00;99644.50;5019443;28;19951;-68
2023/03/31 04:50:24;;;;;;;;;;;;;;;9.51;100.00;99638.19;5026472;28;19924;-69
2023/03/31 04:52:50;;;;;;;;;;;;;;;9.50;100.00;99618.00;5027813;28;19928;-69
2023/03/31 04:55:15;;;;;;;;;;;;;;;9.53;100.00;99628.19;5024518;28;19917;-68
2023/03/31 04:57:40;;;;;;;;;;;;;;;9.54;100.00;99618.41;5026708;28;20004;-69
2023/03/31 05:00:06;;;;;;;;;;;;;;;9.54;100.00;99606.03;5022432;28;19918;-69
2023/03/31 05:02:32;;;;;;;;;;;;;;;9.56;100.00;99598.69;5020217;28;19917;-69
2023/03/31 05:04:57;;;;;;;;;;;;;;;9.56;100.00;99611.94;5019465;28;19913;-68
2023/03/31 05:07:22;;;;;;;;;;;;;;;9.56;100.00;99609.28;5027978;28;19917;-70
2023/03/31 05:09:47;;;;;;;;;;;;;;;9.56;100.00;99598.69;5025185;28;20430;-69
2023/03/31 05:12:12;;;;;;;;;;;;;;;9.56;100.00;99593.38;5024361;28;19921;-70
2023/03/31 05:14:37;;;;;;;;;;;;;;;9.56;100.00;99582.78;5022596;28;19916;-69
2023/03/31 05:17:03;;;;;;;;;;;;;;;9.58;100.00;99580.75;5025595;28;20004;-70
2023/03/31 05:19:28;;;;;;;;;;;;;;;9.58;100.00;99572.81;5027416;28;19921;-69
2023/03/31 05:21:53;;;;;;;;;;;;;;;9.60;100.00;99562.00;5024081;28;19932;-69
2023/03/31 05:24:18;;;;;;;;;;;;;;;9.60;100.00;99562.00;5017210;28;20004;-69
2023/03/31 05:26:51;;;;;;;;;;;;;;;9.62;100.00;99562.63;5024916;28;19920;-70
2023/03/31 05:29:16;;;;;;;;;;;;;;;9.60;100.00;99552.22;5023710;28;20287;-69
2023/03/31 05:31:42;;;;;;;;;;;;;;;9.59;100.00;99549.78;5023158;28;20008;-69
2023/03/31 05:34:07;;;;;;;;;;;;;;;9.55;100.00;99562.59;5019028;28;19933;-69
2023/03/31 05:36:32;;;;;;;;;;;;;;;9.52;100.00;99556.84;5026682;28;19928;-69
2023/03/31 05:38:57;;;;;;;;;;;;;;;9.48;100.00;99553.78;5027290;28;19988;-68
2023/03/31 05:41:22;;;;;;;;;;;;;;;9.47;100.00;99551.31;5021499;28;19962;-68
2023/03/31 05:43:47;;;;;;;;;;;;;;;9.46;100.00;99554.97;5022500;28;19921;-69
2023/03/31 05:46:13;;;;;;;;;;;;;;;9.43;100.00;99553.53;5028021;28;19968;-69
2023/03/31 05:48:38;;;;;;;;;;;;;;;9.44;100.00;99552.53;5020722;28;19925;-68
2023/03/31 05:51:03;;;;;;;;;;;;;;;9.43;100.00;99544.78;5026060;28;20503;-69
2023/03/31 05:53:29;;;;;;;;;;;;;;;9.42;100.00;99543.97;5025911;28;20306;-69
2023/03/31 05:55:58;;;;;;;;;;;;;;;9.36;100.00;99531.50;5022110;28;19921;-68
2023/03/31 05:58:23;;;;;;;;;;;;;;;9.44;100.00;99541.94;5025644;28;20370;-69
2023/03/31 06:00:49;;;;;;;;;;;;;;;9.45;100.00;99543.56;5026388;28;19917;-69
2023/03/31 06:03:14;;;;;;;;;;;;;;;9.43;100.00;99539.47;5017652;28;20033;-68
2023/03/31 06:05:46;;;;;;;;;;;;;;;9.41;100.00;99537.03;5024525;28;20394;-68
2023/03/31 06:08:11;;;;;;;;;;;;;;;9.39;100.00;99531.09;5028102;28;20356;-69
2023/03/31 06:10:37;;;;;;;;;;;;;;;9.38;100.00;99526.00;5017662;28;20059;-68
2023/03/31 06:13:02;;;;;;;;;;;;;;;9.38;100.00;99531.28;5022700;28;19913;-68
2023/03/31 06:15:27;;;;;;;;;;;;;;;9.36;100.00;99523.53;5021138;28;19917;-69
2023/03/31 06:17:52;;;;;;;;;;;;;;;9.35;100.00;99527.22;5023050;28;20066;-68
2023/03/31 06:20:17;;;;;;;;;;;;;;;9.33;100.00;99518.63;5028870;28;19929;-69
2023/03/31 06:22:43;;;;;;;;;;;;;;;9.31;100.00;99515.38;5028822;28;19917;-68
2023/03/31 06:25:08;;;;;;;;;;;;;;;9.29;100.00;99518.22;5026866;28;19924;-69
2023/03/31 06:27:33;;;;;;;;;;;;;;;9.26;100.00;99513.31;5027425;28;19921;-69
2023/03/31 06:29:58;;;;;;;;;;;;;;;9.22;100.00;99519.97;5025082;28;20393;-69
2023/03/31 06:32:23;;;;;;;;;;;;;;;9.20;100.00;99510.59;5023884;28;19995;-69
2023/03/31 06:34:49;;;;;;;;;;;;;;;9.17;100.00;99514.44;5024766;28;20375;-69
2023/03/31 06:37:14;;;;;;;;;;;;;;;9.15;100.00;99497.94;5021254;28;19921;-69
2023/03/31 06:39:39;;;;;;;;;;;;;;;9.14;100.00;99498.13;5026221;28;19917;-69
2023/03/31 06:42:06;;;;;;;;;;;;;;;9.14;100.00;99484.88;5022212;28;19921;-69
2023/03/31 06:44:31;;;;;;;;;;;;;;;9.15;100.00;99482.03;5028819;28;19921;-69
2023/03/31 06:46:56;;;;;;;;;;;;;;;9.16;100.00;99488.97;5023331;28;19948;-69
2023/03/31 06:49:21;;;;;;;;;;;;;;;9.17;100.00;99479.19;5014152;28;19939;-69
2023/03/31 06:51:46;;;;;;;;;;;;;;;9.19;100.00;99482.47;5027252;28;19921;-69
2023/03/31 06:54:11;;;;;;;;;;;;;;;9.18;100.00;99479.00;5028683;28;19927;-69
2023/03/31 06:56:37;;;;;;;;;;;;;;;9.18;100.00;99464.94;5028404;28;19917;-69
2023/03/31 06:59:02;;;;;;;;;;;;;;;9.19;100.00;99463.94;5030969;28;19927;-69
2023/03/31 07:01:27;;;;;;;;;;;;;;;9.21;100.00;99461.91;5012845;28;19922;-70
2023/03/31 07:03:52;;;;;;;;;;;;;;;9.24;100.00;99456.22;5024001;28;20431;-70
2023/03/31 07:06:17;;;;;;;;;;;;;;;9.25;100.00;99460.50;5026661;28;19931;-69
2023/03/31 07:08:42;;;;;;;;;;;;;;;9.26;100.00;99452.38;5027222;28;19917;-69
2023/03/31 07:11:08;;;;;;;;;;;;;;;9.30;100.00;99442.19;5027282;28;19917;-70
2023/03/31 07:13:33;;;;;;;;;;;;;;;9.35;100.00;99452.22;5016278;28;20020;-68
2023/03/31 07:15:58;;;;;;;;;;;;;;;9.40;100.00;99439.19;5027048;28;19974;-69
2023/03/31 07:18:24;;;;;;;;;;;;;;;9.44;100.00;99427.16;5028545;28;19913;-68
2023/03/31 07:20:50;;;;;;;;;;;;;;;9.48;100.00;99431.06;5021499;28;20439;-69
2023/03/31 07:23:15;;;;;;;;;;;;;;;9.53;100.00;99426.78;5023432;28;19917;-70
2023/03/31 07:25:41;;;;;;;;;;;;;;;9.60;100.00;99429.50;5026645;28;19924;-70
2023/03/31 07:28:06;;;;;;;;;;;;;;;9.66;100.00;99438.47;5020602;28;19957;-70
2023/03/31 07:30:31;;;;;;;;;;;;;;;9.68;100.00;99424.00;5026631;28;19917;-69
2023/03/31 07:32:57;;;;;;;;;;;;;;;9.72;100.00;99427.88;5023946;28;20003;-68
2023/03/31 07:35:22;;;;;;;;;;;;;;;9.73;100.00;99424.22;5026245;28;19945;-68
2023/03/31 07:37:48;;;;;;;;;;;;;;;9.74;100.00;99425.03;5022599;28;19914;-69
2023/03/31 07:40:14;;;;;;;;;;;;;;;9.76;100.00;99423.00;5022275;28;20361;-69
2023/03/31 07:42:40;;;;;;;;;;;;;;;9.80;100.00;99417.09;5023243;28;19921;-68
2023/03/31 07:45:06;;;;;;;;;;;;;;;9.84;100.00;99418.34;5025444;28;19929;-69
2023/03/31 07:47:31;;;;;;;;;;;;;;;9.88;100.00;99424.88;5024384;28;20362;-68
2023/03/31 07:49:56;;;;;;;;;;;;;;;9.92;100.00;99418.16;5026344;28;19913;-68
2023/03/31 07:52:23;;;;;;;;;;;;;;;9.96;100.00;99426.53;5025291;28;20004;-69
2023/03/31 07:54:48;;;;;;;;;;;;;;;10.02;100.00;99416.94;5020498;28;19917;-68
2023/03/31 07:57:15;;;;;;;;;;;;;;;10.08;100.00;99416.13;5025081;28;19924;-69
2023/03/31 07:59:40;;;;;;;;;;;;;;;10.12;100.00;99412.88;5028886;28;19917;-69
2023/03/31 08:02:06;;;;;;;;;;;;;;;10.09;100.00;99405.31;5024429;28;19913;-68
2023/03/31 08:04:31;;;;;;;;;;;;;;;10.20;100.00;99410.06;5021539;28;19980;-70
2023/03/31 08:06:56;;;;;;;;;;;;;;;10.22;100.00;99421.28;5022320;28;19973;-69
2023/03/31 08:09:22;;;;;;;;;;;;;;;10.25;100.00;99417.41;4961923;28;1755665;-69
2023/03/31 08:11:47;;;;;;;;;;;;;;;10.24;100.00;99416.59;5022622;28;20595;-69
2023/03/31 08:14:13;;;;;;;;;;;;;;;10.24;100.00;99405.97;5019143;28;20020;-69
2023/03/31 08:16:38;;;;;;;;;;;;;;;10.27;100.00;99407.41;5024356;28;19979;-69
2023/03/31 08:19:03;;;;;;;;;;;;;;;10.27;100.00;99399.44;5021513;28;19931;-69
2023/03/31 08:21:29;;;;;;;;;;;;;;;10.31;100.00;99399.84;5027535;28;19917;-69
2023/03/31 08:23:54;;;;;;;;;;;;;;;10.32;100.00;99396.19;5022748;28;19925;-69
2023/03/31 08:26:20;;;;;;;;;;;;;;;10.36;100.00;99395.56;5023082;28;19952;-69
2023/03/31 08:28:47;;;;;;;;;;;;;;;10.39;100.00;99397.81;5021378;28;19921;-69
2023/03/31 08:31:15;;;;;;;;;;;;;;;10.44;100.00;99397.22;5028799;28;19917;-69
2023/03/31 08:33:40;;;;;;;;;;;;;;;10.48;100.00;99411.69;5021994;28;19979;-69
2023/03/31 08:36:07;;;;;;;;;;;;;;;10.52;100.00;99402.31;5023759;28;19929;-69
2023/03/31 08:38:33;;;;;;;;;;;;;;;10.57;100.00;99391.06;5019652;28;19925;-70
2023/03/31 08:41:00;;;;;;;;;;;;;;;10.60;100.00;99394.13;5026349;28;19920;-70
2023/03/31 08:43:29;;;;;;;;;;;;;;;10.65;100.00;99399.63;5023006;28;19918;-69
2023/03/31 08:45:55;;;;;;;;;;;;;;;10.68;100.00;99398.41;5020606;28;19917;-69
2023/03/31 08:48:28;;;;;;;;;;;;;;;10.72;100.00;99396.97;5013509;28;19924;-69
2023/03/31 08:51:13;;;;;;;;;;;;;;;10.74;100.00;99386.97;5025684;28;19943;-69
2023/03/31 08:53:57;;;;;;;;;;;;;;;10.79;100.00;99395.94;5023232;28;20008;-69
2023/03/31 08:56:24;;;;;;;;;;;;;;;10.83;100.00;99383.88;5021246;28;19924;-69
2023/03/31 08:58:50;;;;;;;;;;;;;;;10.90;100.00;99388.34;5020122;28;19967;-68
2023/03/31 09:01:15;;;;;;;;;;;;;;;10.98;100.00;99385.47;5025851;28;19921;-68
2023/03/31 09:03:59;;;;;;;;;;;;;;;11.03;100.00;99383.03;5021783;28;19917;-69
2023/03/31 09:06:37;;;;;;;;;;;;;;;11.07;100.00;99389.53;5019128;28;19944;-68
2023/03/31 09:09:07;;;;;;;;;;;;;;;11.15;100.00;99376.84;5025804;28;19921;-69
2023/03/31 09:11:44;;;;;;;;;;;;;;;11.22;100.00;99384.78;5023662;28;19926;-69
2023/03/31 09:14:16;;;;;;;;;;;;;;;11.29;99.67;99374.16;5025070;28;19921;-68
2023/03/31 09:16:51;;;;;;;;;;;;;;;11.32;98.81;99371.88;5025515;28;20268;-68
2023/03/31 09:19:19;;;;;;;;;;;;;;;11.37;98.36;99379.22;5022376;28;20059;-68
2023/03/31 09:21:48;;;;;;;;;;;;;;;11.47;97.83;99368.94;5024148;28;19917;-68
2023/03/31 09:24:26;;;;;;;;;;;;;;;11.57;97.18;99360.50;5015008;28;19917;-68
2023/03/31 09:26:57;;;;;;;;;;;;;;;11.62;95.73;99363.34;5015925;28;19923;-68
2023/03/31 09:29:30;;;;;;;;;;;;;;;11.66;94.53;99360.03;5020764;28;19972;-68
2023/03/31 09:32:00;;;;;;;;;;;;;;;11.70;93.95;99373.72;5022531;28;19921;-68
2023/03/31 09:34:31;;;;;;;;;;;;;;;11.71;92.32;99364.72;5024725;28;19971;-68
2023/03/31 09:36:56;;;;;;;;;;;;;;;11.70;91.21;99355.09;5010639;28;20054;-68
2023/03/31 09:39:21;;;;;;;;;;;;;;;11.68;90.93;99365.13;5021851;28;20450;-68
2023/03/31 09:41:48;;;;;;;;;;;;;;;11.69;90.49;99356.13;5021874;28;19921;-68
2023/03/31 09:44:29;;;;;;;;;;;;;;;11.70;90.04;99361.22;5024524;28;20003;-67
2023/03/31 09:46:55;;;;;;;;;;;;;;;11.64;89.35;99348.00;5023338;28;20418;-67
2023/03/31 09:49:22;;;;;;;;;;;;;;;11.61;88.72;99359.06;5024327;28;19925;-68
2023/03/31 09:51:51;;;;;;;;;;;;;;;11.59;88.94;99361.13;5024421;28;19921;-67
2023/03/31 09:54:42;;;;;;;;;;;;;;;11.56;88.26;99345.56;5026599;28;20035;-68
2023/03/31 09:57:12;;;;;;;;;;;;;;;11.44;88.23;99346.25;5020351;28;19957;-68
2023/03/31 09:59:37;;;;;;;;;;;;;;;11.48;88.37;99344.78;5025260;28;19948;-68
2023/03/31 10:02:13;;;;;;;;;;;;;;;11.57;88.57;99344.56;5024178;28;19917;-68
2023/03/31 10:04:43;;;;;;;;;;;;;;;11.67;88.53;99342.25;5022797;28;20003;-67
2023/03/31 10:07:10;;;;;;;;;;;;;;;11.76;88.22;99341.75;5020655;28;19924;-68
2023/03/31 10:09:37;;;;;;;;;;;;;;;11.85;88.16;99336.19;5024884;28;19951;-68
2023/03/31 10:12:05;;;;;;;;;;;;;;;11.90;86.92;99342.53;5021291;28;19967;-68
2023/03/31 10:14:46;;;;;;;;;;;;;;;11.88;86.44;99333.94;5017574;28;19968;-67
2023/03/31 10:17:16;;;;;;;;;;;;;;;11.85;86.44;99333.53;5025399;28;19960;-68
2023/03/31 10:19:50;;;;;;;;;;;;;;;11.89;86.39;99330.25;5020762;28;20418;-67
2023/03/31 10:22:25;;;;;;;;;;;;;;;11.88;85.72;99333.13;5021311;28;20378;-67
2023/03/31 10:24:51;;;;;;;;;;;;;;;11.88;85.12;99325.97;5018337;28;19917;-67
2023/03/31 10:27:20;;;;;;;;;;;;;;;11.85;85.48;99321.06;5019477;28;19928;-66
2023/03/31 10:29:45;;;;;;;;;;;;;;;11.92;85.22;99327.16;5021035;28;19921;-67
2023/03/31 10:32:30;;;;;;;;;;;;;;;11.99;85.29;99316.47;5023599;28;19984;-67
2023/03/31 10:34:56;;;;;;;;;;;;;;;12.04;84.65;99322.75;5021413;28;19925;-67
2023/03/31 10:37:23;;;;;;;;;;;;;;;12.02;84.31;99334.66;5021165;28;19925;-67
2023/03/31 10:39:56;;;;;;;;;;;;;;;11.90;84.70;99320.44;5026155;28;19921;-67
2023/03/31 10:42:22;;;;;;;;;;;;;;;11.83;84.67;99312.47;5018424;28;20425;-67
2023/03/31 10:44:47;;;;;;;;;;;;;;;11.87;85.11;99311.03;5017518;28;19928;-66
2023/03/31 10:47:12;;;;;;;;;;;;;;;11.95;85.23;99308.09;5026340;28;19917;-66
2023/03/31 10:49:38;;;;;;;;;;;;;;;12.01;85.62;99312.56;5023267;28;20401;-67
2023/03/31 10:52:15;;;;;;;;;;;;;;;12.02;85.38;99303.53;5021127;28;19921;-67
2023/03/31 10:54:45;;;;;;;;;;;;;;;11.98;84.14;99313.00;5018953;28;19932;-66
2023/03/31 10:57:11;;;;;;;;;;;;;;;11.94;84.70;99295.03;5027903;28;19913;-66
2023/03/31 10:59:39;;;;;;;;;;;;;;;11.94;84.49;99306.47;5019136;28;19948;-67
2023/03/31 11:02:10;;;;;;;;;;;;;;;11.90;84.24;99291.97;5022752;28;19917;-66
2023/03/31 11:04:54;;;;;;;;;;;;;;;11.92;84.74;99289.91;5025563;28;19962;-66
2023/03/31 11:07:23;;;;;;;;;;;;;;;11.96;84.89;99288.44;5013126;28;20260;-66
2023/03/31 11:10:06;;;;;;;;;;;;;;;11.97;84.95;99290.06;5029033;28;19917;-67
2023/03/31 11:12:35;;;;;;;;;;;;;;;12.00;84.55;99292.28;5026972;28;19970;-67
2023/03/31 11:15:00;;;;;;;;;;;;;;;12.04;83.93;99280.19;5023981;28;20338;-66
2023/03/31 11:17:25;;;;;;;;;;;;;;;12.11;83.72;99298.75;5028414;28;20365;-66
2023/03/31 11:20:09;;;;;;;;;;;;;;;12.18;83.19;99277.41;5025764;28;19943;-66
2023/03/31 11:22:54;;;;;;;;;;;;;;;12.24;83.11;99276.53;5024335;28;19925;-66
2023/03/31 11:25:30;;;;;;;;;;;;;;;12.31;82.81;99277.28;5027429;28;19963;-66
2023/03/31 11:28:14;;;;;;;;;;;;;;;12.28;81.35;99280.38;5024462;28;20021;-66
2023/03/31 11:31:00;;;;;;;;;;;;;;;12.30;80.97;99260.50;5027710;28;19917;-66
2023/03/31 11:33:34;;;;;;;;;;;;;;;12.36;81.33;99269.44;4999299;28;19940;-67
2023/03/31 11:36:17;;;;;;;;;;;;;;;12.40;80.77;99260.78;5023512;28;19964;-67
2023/03/31 11:38:52;;;;;;;;;;;;;;;12.43;80.06;99262.19;5021848;28;19921;-67
2023/03/31 11:41:30;;;;;;;;;;;;;;;12.46;80.43;99245.00;5021867;28;19921;-67
2023/03/31 11:44:01;;;;;;;;;;;;;;;12.49;79.46;99255.19;5025346;28;20000;-66
2023/03/31 11:46:45;;;;;;;;;;;;;;;12.50;79.60;99254.97;5028529;28;19928;-67
2023/03/31 11:49:16;;;;;;;;;;;;;;;12.52;79.49;99247.56;5023698;28;19974;-67
2023/03/31 11:51:47;;;;;;;;;;;;;;;12.51;78.65;99263.78;5027898;28;19917;-67
2023/03/31 11:54:18;;;;;;;;;;;;;;;12.45;78.30;99246.84;5026742;28;19920;-66
2023/03/31 11:56:43;;;;;;;;;;;;;;;12.44;78.03;99239.06;5028314;28;19913;-66
2023/03/31 11:59:13;;;;;;;;;;;;;;;12.42;77.66;99239.28;5024194;28;19924;-67
2023/03/31 12:01:46;;;;;;;;;;;;;;;12.41;77.48;99238.47;5027896;28;20002;-66
2023/03/31 12:04:23;;;;;;;;;;;;;;;12.43;77.89;99224.09;5024465;28;19967;-66
2023/03/31 12:06:48;;;;;;;;;;;;;;;12.48;78.14;99230.41;5021767;28;19917;-66
2023/03/31 12:09:23;;;;;;;;;;;;;;;12.49;77.64;99231.22;5027427;28;20401;-66
2023/03/31 12:11:54;;;;;;;;;;;;;;;12.43;76.48;99253.41;5021268;28;19917;-66
2023/03/31 12:14:28;;;;;;;;;;;;;;;12.33;76.52;99216.66;5021480;28;20012;-66
2023/03/31 12:16:56;;;;;;;;;;;;;;;12.31;75.91;99227.53;5023488;28;19913;-67
2023/03/31 12:19:32;;;;;;;;;;;;;;;12.22;75.64;99209.41;5028419;28;20379;-67
2023/03/31 12:22:27;;;;;;;;;;;;;;;12.17;76.31;99207.41;5016823;28;19964;-66
2023/03/31 12:24:52;;;;;;;;;;;;;;;12.10;76.62;99218.09;5002890;28;19964;-66
2023/03/31 12:27:22;;;;;;;;;;;;;;;11.91;76.93;99220.97;5028199;28;19971;-66
2023/03/31 12:29:53;;;;;;;;;;;;;;;11.91;77.17;99205.81;5021007;28;19974;-65
2023/03/31 12:32:21;;;;;;;;;;;;;;;12.05;77.75;99196.66;5019252;28;19925;-66
2023/03/31 12:34:50;;;;;;;;;;;;;;;12.23;76.63;99211.03;5020070;28;19926;-67
2023/03/31 12:37:34;;;;;;;;;;;;;;;12.35;76.42;99196.75;5026229;28;19917;-67
2023/03/31 12:39:59;;;;;;;;;;;;;;;12.45;75.61;99195.44;5022735;28;19921;-67
2023/03/31 12:42:35;;;;;;;;;;;;;;;12.48;75.34;99195.00;5015577;28;19928;-67
2023/03/31 12:45:22;;;;;;;;;;;;;;;12.46;74.96;99195.22;5024081;28;19940;-66
2023/03/31 12:47:58;;;;;;;;;;;;;;;12.45;75.21;99201.59;5031481;28;19921;-67
2023/03/31 12:50:27;;;;;;;;;;;;;;;12.41;74.92;99195.06;5022167;28;19917;-66
2023/03/31 12:53:04;;;;;;;;;;;;;;;12.38;75.35;99174.19;5026074;28;20019;-67
2023/03/31 12:55:40;;;;;;;;;;;;;;;12.35;75.63;99182.63;5024235;28;19918;-66